Аэропорт: Бегишево. Набережные Челны, Нижнекамск

ICAO: UWKE

METAR:
2019/03/26 13:00
UWKE 261300Z 21005G10MPS CAVOK 03/M06 Q1012 R21/090070 NOSIG RMK QFE742/0989
METAR:
2019/03/26 12:21
TAF UWKE 261045Z 2612/2712 21006G12MPS 9999 BKN020 
      TEMPO 2612/2618 23007G14MPS 3100 -SHSNRA BKN011 SCT015CB 
     FM261800 18006G12MPS 3100 -SNRA BR OVC011 
      TEMPO 2618/2624 18008G15MPS 2100 -SHSN BLSN BKN007 BKN015CB 
      BECMG 2700/2701 21007G14MPS